createdAt,value
2018-08-04T00:01:04.159Z,99.90
2018-08-04T00:03:33.552Z,99.90
2018-08-04T00:06:02.048Z,99.90
2018-08-04T00:08:30.992Z,99.90
2018-08-04T00:11:00.333Z,99.90
2018-08-04T00:13:29.012Z,99.90
2018-08-04T00:15:57.714Z,99.90
2018-08-04T00:18:26.339Z,99.90
2018-08-04T00:20:55.113Z,99.90
2018-08-04T00:23:23.911Z,99.90
2018-08-04T00:25:52.502Z,99.90
2018-08-04T00:28:21.284Z,99.90
2018-08-04T00:30:50.072Z,99.90
2018-08-04T00:33:18.649Z,99.90
2018-08-04T00:35:47.807Z,99.90
2018-08-04T00:38:16.353Z,99.90
2018-08-04T00:40:45.523Z,99.90
2018-08-04T00:43:14.221Z,99.90
2018-08-04T00:45:43.455Z,99.90
2018-08-04T00:48:12.004Z,99.90
2018-08-04T00:50:40.425Z,99.90
2018-08-04T00:55:37.789Z,99.90
2018-08-04T00:58:06.526Z,99.90
2018-08-04T01:00:41.820Z,99.90
2018-08-04T01:03:10.419Z,99.90
2018-08-04T01:05:38.957Z,99.90
2018-08-04T01:08:07.433Z,99.90
2018-08-04T01:10:36.332Z,99.90
2018-08-04T01:13:04.838Z,99.90
2018-08-04T01:15:34.172Z,99.90
2018-08-04T01:18:02.758Z,99.90
2018-08-04T01:20:31.287Z,99.90
2018-08-04T01:22:59.874Z,99.90
2018-08-04T01:25:28.347Z,99.90
2018-08-04T01:27:56.929Z,99.90
2018-08-04T01:30:25.463Z,99.90
2018-08-04T01:32:53.958Z,99.90
2018-08-04T01:35:23.129Z,99.90
2018-08-04T01:37:51.867Z,99.90
2018-08-04T01:40:20.624Z,99.90
2018-08-04T01:42:49.517Z,99.90
2018-08-04T01:45:18.005Z,99.90
2018-08-04T01:47:46.985Z,99.90
2018-08-04T01:50:15.516Z,99.90
2018-08-04T01:52:44.116Z,99.90
2018-08-04T01:55:12.837Z,99.90
2018-08-04T02:00:09.817Z,99.90
2018-08-04T02:02:38.540Z,99.90
2018-08-04T02:05:07.493Z,99.90
2018-08-04T02:07:35.947Z,99.90
2018-08-04T02:10:04.420Z,99.90
2018-08-04T02:12:33.157Z,99.90
2018-08-04T02:15:01.805Z,99.90
2018-08-04T02:17:30.257Z,99.90
2018-08-04T02:19:58.798Z,99.90
2018-08-04T02:22:27.205Z,99.90
2018-08-04T02:24:55.778Z,99.90
2018-08-04T02:27:24.274Z,99.90
2018-08-04T02:29:52.712Z,99.90
2018-08-04T02:32:21.517Z,99.90
2018-08-04T02:34:50.066Z,99.90
2018-08-04T02:37:18.468Z,99.90
2018-08-04T02:39:46.990Z,99.90
2018-08-04T02:44:50.299Z,99.90
2018-08-04T02:47:18.745Z,99.90
2018-08-04T02:49:47.309Z,99.90
2018-08-04T02:52:15.752Z,99.90
2018-08-04T02:54:44.391Z,99.90
2018-08-04T02:57:13.367Z,99.90
2018-08-04T02:59:41.956Z,99.90
2018-08-04T03:02:10.449Z,99.90
2018-08-04T03:04:39.015Z,99.90
2018-08-04T03:07:07.508Z,99.90
2018-08-04T03:09:36.059Z,99.90
2018-08-04T03:12:05.113Z,99.90
2018-08-04T03:14:34.221Z,99.90
2018-08-04T03:17:02.805Z,99.90
2018-08-04T03:19:31.355Z,99.90
2018-08-04T03:22:00.495Z,99.90
2018-08-04T03:24:28.996Z,99.90
2018-08-04T03:26:57.524Z,99.90
2018-08-04T03:29:25.992Z,99.90
2018-08-04T03:31:55.001Z,99.90
2018-08-04T03:34:26.487Z,99.90
2018-08-04T03:36:55.049Z,99.90
2018-08-04T03:39:24.355Z,99.90
2018-08-04T03:41:52.784Z,99.90
2018-08-04T03:44:21.317Z,99.90
2018-08-04T03:46:49.748Z,99.90
2018-08-04T03:49:18.353Z,99.90
2018-08-04T03:51:47.428Z,99.90
2018-08-04T03:54:16.042Z,99.90
2018-08-04T03:56:44.429Z,99.90
2018-08-04T03:59:12.890Z,99.90
2018-08-04T04:01:41.695Z,99.90
2018-08-04T04:04:10.154Z,99.90
2018-08-04T04:06:39.373Z,99.90
2018-08-04T04:09:09.354Z,99.90
2018-08-04T04:11:37.931Z,99.90
2018-08-04T04:14:06.368Z,99.90
2018-08-04T04:16:35.023Z,99.90
2018-08-04T04:19:03.713Z,99.90
2018-08-04T04:21:32.339Z,99.90
2018-08-04T04:24:00.865Z,99.90
2018-08-04T04:26:29.471Z,99.90
2018-08-04T04:28:58.449Z,99.90
2018-08-04T04:31:27.665Z,99.90
2018-08-04T04:33:56.102Z,99.90
2018-08-04T04:36:24.565Z,99.90
2018-08-04T04:38:53.057Z,99.90
2018-08-04T04:41:21.725Z,99.90
2018-08-04T04:46:19.062Z,99.90
2018-08-04T04:48:47.870Z,99.90
2018-08-04T04:51:16.470Z,99.90
2018-08-04T04:56:12.991Z,99.90
2018-08-04T04:58:41.568Z,99.90
2018-08-04T05:01:10.176Z,99.90
2018-08-04T05:03:38.617Z,99.90
2018-08-04T05:06:07.189Z,99.90
2018-08-04T05:08:36.091Z,99.90
2018-08-04T05:11:04.746Z,99.90
2018-08-04T05:13:33.296Z,99.90
2018-08-04T05:16:01.854Z,99.90
2018-08-04T05:18:30.304Z,99.90
2018-08-04T05:20:58.767Z,99.90
2018-08-04T05:23:34.557Z,99.90
2018-08-04T05:26:03.296Z,99.90
2018-08-04T05:28:31.801Z,99.90
2018-08-04T05:31:00.483Z,99.90
2018-08-04T05:33:29.025Z,99.90
2018-08-04T05:35:57.462Z,99.90
2018-08-04T05:38:25.951Z,99.90
2018-08-04T05:40:54.816Z,99.90
2018-08-04T05:43:24.359Z,99.90
2018-08-04T05:45:53.534Z,99.90
2018-08-04T05:48:21.974Z,99.90
2018-08-04T05:50:50.817Z,99.90
2018-08-04T05:53:19.253Z,99.90
2018-08-04T05:55:47.778Z,99.90
2018-08-04T05:58:16.522Z,99.90
2018-08-04T06:00:45.163Z,99.90
2018-08-04T06:03:13.644Z,99.90
2018-08-04T06:05:43.356Z,99.90
2018-08-04T06:08:12.009Z,99.90
2018-08-04T06:10:40.748Z,99.90
2018-08-04T06:13:09.268Z,99.90
2018-08-04T06:15:38.153Z,99.90
2018-08-04T06:18:06.730Z,99.90
2018-08-04T06:20:35.827Z,99.90
2018-08-04T06:23:04.262Z,99.90
2018-08-04T06:25:32.772Z,99.90
2018-08-04T06:28:01.320Z,99.90
2018-08-04T06:30:30.002Z,99.90
2018-08-04T06:32:58.418Z,99.90
2018-08-04T06:35:27.065Z,99.90
2018-08-04T06:37:55.694Z,99.90
2018-08-04T06:42:52.455Z,99.90
2018-08-04T06:45:21.081Z,99.90
2018-08-04T06:47:50.578Z,99.90
2018-08-04T06:50:19.065Z,99.90
2018-08-04T06:52:47.951Z,99.90
2018-08-04T06:55:16.692Z,99.90
2018-08-04T06:57:45.185Z,99.90
2018-08-04T07:00:13.711Z,99.90
2018-08-04T07:02:42.858Z,99.90
2018-08-04T07:05:11.610Z,99.90
2018-08-04T07:07:40.208Z,99.90
2018-08-04T07:10:08.904Z,99.90
2018-08-04T07:12:37.458Z,99.90
2018-08-04T07:15:06.293Z,99.90
2018-08-04T07:17:34.797Z,99.90
2018-08-04T07:20:03.257Z,99.90
2018-08-04T07:22:31.808Z,99.90
2018-08-04T07:25:00.782Z,99.90
2018-08-04T07:27:29.212Z,99.90
2018-08-04T07:32:26.003Z,99.90
2018-08-04T07:34:54.822Z,99.90
2018-08-04T07:37:23.228Z,99.90
2018-08-04T07:39:51.658Z,99.90
2018-08-04T07:42:20.216Z,99.90
2018-08-04T07:44:48.658Z,99.90
2018-08-04T07:47:17.185Z,99.90
2018-08-04T07:49:46.318Z,99.90
2018-08-04T07:52:14.762Z,99.90
2018-08-04T07:54:43.168Z,99.90
2018-08-04T07:57:11.667Z,99.90
2018-08-04T07:59:40.189Z,99.90
2018-08-04T08:02:09.067Z,99.80
2018-08-04T08:04:37.623Z,98.50
2018-08-04T08:07:06.402Z,99.30
2018-08-04T08:09:35.093Z,99.20
2018-08-04T08:14:32.712Z,98.20
2018-08-04T08:17:01.119Z,98.30
2018-08-04T08:19:29.763Z,97.90
2018-08-04T08:21:58.287Z,97.20
2018-08-04T08:24:27.076Z,96.70
2018-08-04T08:26:55.784Z,96.60
2018-08-04T08:29:24.265Z,96.50
2018-08-04T08:31:53.100Z,96.50
2018-08-04T08:34:22.632Z,96.60
2018-08-04T08:36:51.684Z,95.70
2018-08-04T08:39:20.292Z,95.20
2018-08-04T08:44:17.784Z,95.10
2018-08-04T08:46:46.647Z,95.40
2018-08-04T08:49:15.495Z,93.70
2018-08-04T08:51:44.836Z,93.80
2018-08-04T08:54:13.553Z,94.20
2018-08-04T08:56:42.507Z,94.70
2018-08-04T08:59:11.043Z,94.00
2018-08-04T09:01:39.782Z,94.20
2018-08-04T09:04:08.445Z,93.00
2018-08-04T09:06:37.021Z,93.50
2018-08-04T09:09:08.136Z,95.00
2018-08-04T09:11:36.758Z,92.70
2018-08-04T09:14:05.244Z,93.10
2018-08-04T09:19:02.185Z,93.30
2018-08-04T09:21:30.818Z,93.20
2018-08-04T09:23:59.256Z,92.90
2018-08-04T09:26:28.634Z,93.00
2018-08-04T09:28:57.126Z,93.60
2018-08-04T09:31:25.806Z,92.70
2018-08-04T09:33:54.321Z,92.00
2018-08-04T09:36:22.755Z,91.00
2018-08-04T09:38:51.248Z,92.30
2018-08-04T09:41:19.709Z,89.40
2018-08-04T09:43:48.404Z,90.20
2018-08-04T09:46:17.042Z,90.40
2018-08-04T09:48:46.501Z,88.90
2018-08-04T09:51:14.978Z,88.70
2018-08-04T09:53:43.840Z,88.70
2018-08-04T09:56:12.427Z,87.20
2018-08-04T09:58:40.958Z,84.40
2018-08-04T10:01:14.865Z,87.30
2018-08-04T10:03:43.876Z,86.50
2018-08-04T10:06:12.351Z,90.90
2018-08-04T10:08:40.781Z,84.30
2018-08-04T10:11:09.369Z,83.60
2018-08-04T10:13:38.319Z,82.60
2018-08-04T10:16:06.934Z,81.50
2018-08-04T10:21:05.558Z,82.10
2018-08-04T10:23:34.740Z,85.10
2018-08-04T10:26:03.795Z,81.50
2018-08-04T10:28:32.212Z,78.30
2018-08-04T10:31:01.301Z,75.80
2018-08-04T10:33:29.773Z,82.70
2018-08-04T10:35:58.335Z,79.70
2018-08-04T10:38:26.844Z,78.10
2018-08-04T10:40:55.379Z,77.00
2018-08-04T10:43:24.597Z,76.90
2018-08-04T10:45:53.684Z,73.90
2018-08-04T10:48:22.353Z,76.90
2018-08-04T10:50:50.794Z,74.80
2018-08-04T10:55:47.555Z,72.60
2018-08-04T10:58:16.826Z,72.90
2018-08-04T11:00:45.333Z,70.20
2018-08-04T11:03:13.908Z,73.70
2018-08-04T11:05:42.817Z,74.90
2018-08-04T11:08:11.310Z,69.60
2018-08-04T11:10:40.007Z,64.00
2018-08-04T11:13:08.841Z,66.00
2018-08-04T11:15:37.416Z,66.60
2018-08-04T11:18:06.077Z,66.10
2018-08-04T11:20:35.030Z,66.00
2018-08-04T11:23:03.490Z,64.10
2018-08-04T11:25:32.052Z,64.70
2018-08-04T11:28:00.989Z,60.50
2018-08-04T11:30:29.430Z,61.40
2018-08-04T11:32:58.010Z,58.40
2018-08-04T11:35:26.560Z,57.90
2018-08-04T11:37:55.103Z,58.50
2018-08-04T11:40:23.744Z,59.70
2018-08-04T11:42:52.191Z,58.30
2018-08-04T11:45:20.627Z,58.10
2018-08-04T11:47:49.077Z,58.90
2018-08-04T11:50:17.673Z,60.10
2018-08-04T11:52:46.739Z,59.10
2018-08-04T11:55:15.343Z,57.40
2018-08-04T11:57:43.827Z,56.80
2018-08-04T12:00:12.469Z,58.70
2018-08-04T12:02:41.566Z,58.90
2018-08-04T12:05:10.074Z,56.50
2018-08-04T12:07:39.581Z,58.00
2018-08-04T12:10:08.380Z,55.60
2018-08-04T12:12:36.896Z,57.50
2018-08-04T12:15:05.815Z,57.50
2018-08-04T12:17:34.381Z,59.50
2018-08-04T12:20:04.302Z,59.80
2018-08-04T12:25:01.115Z,57.80
2018-08-04T12:27:29.567Z,59.90
2018-08-04T12:29:58.646Z,61.40
2018-08-04T12:32:27.818Z,59.60
2018-08-04T12:34:56.254Z,60.00
2018-08-04T12:37:24.760Z,60.40
2018-08-04T12:39:53.430Z,59.20
2018-08-04T12:42:22.891Z,55.40
2018-08-04T12:44:51.984Z,54.70
2018-08-04T12:47:20.529Z,52.70
2018-08-04T12:49:49.012Z,52.40
2018-08-04T12:52:17.587Z,53.80
2018-08-04T12:54:46.249Z,52.40
2018-08-04T12:57:14.761Z,49.70
2018-08-04T12:59:43.579Z,50.90
2018-08-04T13:02:12.529Z,51.30
2018-08-04T13:04:41.094Z,51.60
2018-08-04T13:07:09.750Z,50.60
2018-08-04T13:09:38.210Z,52.50
2018-08-04T13:12:06.884Z,51.60
2018-08-04T13:14:35.358Z,52.10
2018-08-04T13:17:04.005Z,53.30
2018-08-04T13:19:32.575Z,51.00
2018-08-04T13:22:01.226Z,50.00
2018-08-04T13:24:29.687Z,50.70
2018-08-04T13:26:58.278Z,50.60
2018-08-04T13:29:27.059Z,50.60
2018-08-04T13:31:55.590Z,52.40
2018-08-04T13:34:24.330Z,50.90
2018-08-04T13:36:52.945Z,52.50
2018-08-04T13:39:21.452Z,53.20
2018-08-04T13:41:50.264Z,52.50
2018-08-04T13:44:18.949Z,55.30
2018-08-04T13:46:47.469Z,50.60
2018-08-04T13:49:15.930Z,52.60
2018-08-04T13:51:44.479Z,52.10
2018-08-04T13:54:13.016Z,52.20
2018-08-04T13:56:41.479Z,53.10
2018-08-04T13:59:09.920Z,54.20
2018-08-04T14:01:38.379Z,52.50
2018-08-04T14:04:06.967Z,55.20
2018-08-04T14:06:35.405Z,54.50
2018-08-04T14:09:05.332Z,56.20
2018-08-04T14:11:34.183Z,56.10
2018-08-04T14:14:03.589Z,57.90
2018-08-04T14:16:32.246Z,57.50
2018-08-04T14:19:01.409Z,58.10
2018-08-04T14:21:30.803Z,56.60
2018-08-04T14:23:59.431Z,55.90
2018-08-04T14:26:27.953Z,55.50
2018-08-04T14:28:56.465Z,56.10
2018-08-04T14:31:25.203Z,57.30
2018-08-04T14:33:53.915Z,58.00
2018-08-04T14:36:22.441Z,58.30
2018-08-04T14:38:51.496Z,58.00
2018-08-04T14:41:19.965Z,57.90
2018-08-04T14:43:48.532Z,58.30
2018-08-04T14:46:17.571Z,58.00
2018-08-04T14:48:46.278Z,58.10
2018-08-04T14:51:15.912Z,58.80
2018-08-04T14:53:44.354Z,59.70
2018-08-04T14:56:13.605Z,59.60
2018-08-04T14:58:42.102Z,60.70
2018-08-04T15:01:10.846Z,58.90
2018-08-04T15:03:40.011Z,57.30
2018-08-04T15:06:09.250Z,57.30
2018-08-04T15:08:37.715Z,58.80
2018-08-04T15:11:06.817Z,59.40
2018-08-04T15:13:36.132Z,59.60
2018-08-04T15:16:05.496Z,60.30
2018-08-04T15:18:33.995Z,58.30
2018-08-04T15:21:02.491Z,57.80
2018-08-04T15:23:31.075Z,58.60
2018-08-04T15:25:59.661Z,59.60
2018-08-04T15:28:28.382Z,58.70
2018-08-04T15:30:56.888Z,57.00
2018-08-04T15:33:25.354Z,59.10
2018-08-04T15:35:53.934Z,59.20
2018-08-04T15:38:23.898Z,59.00
2018-08-04T15:40:52.357Z,60.10
2018-08-04T15:43:21.243Z,60.30
2018-08-04T15:45:51.000Z,59.10
2018-08-04T15:48:19.540Z,60.20
2018-08-04T15:50:48.062Z,61.10
2018-08-04T15:53:16.785Z,60.80
2018-08-04T15:55:45.434Z,99.90
2018-08-04T15:58:14.085Z,99.90
2018-08-04T16:00:42.703Z,99.90
2018-08-04T16:03:11.258Z,99.90
2018-08-04T16:05:39.862Z,99.90
2018-08-04T16:08:09.133Z,99.90
2018-08-04T16:10:37.677Z,99.90
2018-08-04T16:13:06.132Z,99.90
2018-08-04T16:15:34.757Z,99.90
2018-08-04T16:18:03.301Z,99.90
2018-08-04T16:20:31.962Z,99.90
2018-08-04T16:23:00.753Z,99.90
2018-08-04T16:25:29.257Z,99.90
2018-08-04T16:27:57.943Z,99.90
2018-08-04T16:30:26.822Z,99.90
2018-08-04T16:32:55.757Z,99.90
2018-08-04T16:35:24.190Z,99.90
2018-08-04T16:37:52.924Z,99.90
2018-08-04T16:40:21.609Z,99.90
2018-08-04T16:42:50.138Z,99.90
2018-08-04T16:45:18.643Z,99.90
2018-08-04T16:47:47.153Z,99.90
2018-08-04T16:50:15.712Z,99.90
2018-08-04T16:52:44.538Z,99.90
2018-08-04T16:55:13.415Z,99.90
2018-08-04T16:57:42.069Z,99.90
2018-08-04T17:00:10.976Z,99.90
2018-08-04T17:02:39.573Z,99.90
2018-08-04T17:05:08.354Z,99.90
2018-08-04T17:07:36.837Z,99.90
2018-08-04T17:10:05.364Z,99.90
2018-08-04T17:12:33.857Z,94.60
2018-08-04T17:15:02.421Z,93.50
2018-08-04T17:17:31.225Z,81.30
2018-08-04T17:19:59.816Z,80.10
2018-08-04T17:22:28.892Z,77.30
2018-08-04T17:24:57.392Z,78.30
2018-08-04T17:27:25.944Z,75.30
2018-08-04T17:29:54.534Z,75.70
2018-08-04T17:32:25.298Z,74.90
2018-08-04T17:34:53.731Z,74.80
2018-08-04T17:37:22.283Z,74.80
2018-08-04T17:39:50.798Z,75.60
2018-08-04T17:42:19.882Z,74.20
2018-08-04T17:44:48.317Z,75.60
2018-08-04T17:47:18.065Z,75.20
2018-08-04T17:49:46.757Z,76.40
2018-08-04T17:52:15.515Z,75.70
2018-08-04T17:54:44.130Z,75.90
2018-08-04T17:57:12.805Z,77.70
2018-08-04T17:59:42.009Z,77.50
2018-08-04T18:02:10.434Z,78.10
2018-08-04T18:04:39.187Z,78.90
2018-08-04T18:07:07.795Z,79.70
2018-08-04T18:09:36.233Z,79.20
2018-08-04T18:12:04.864Z,79.90
2018-08-04T18:14:33.929Z,79.60
2018-08-04T18:17:02.381Z,81.10
2018-08-04T18:19:30.899Z,79.80
2018-08-04T18:21:59.384Z,80.90
2018-08-04T18:24:27.837Z,81.90
2018-08-04T18:26:56.884Z,81.70
2018-08-04T18:29:25.440Z,82.30
2018-08-04T18:31:53.967Z,83.50
2018-08-04T18:34:22.460Z,83.50
2018-08-04T18:36:51.145Z,84.10
2018-08-04T18:39:19.691Z,85.40
2018-08-04T18:41:48.221Z,85.60
2018-08-04T18:44:16.782Z,89.50
2018-08-04T18:46:45.606Z,91.00
2018-08-04T18:49:14.331Z,92.20
2018-08-04T18:51:42.881Z,92.50
2018-08-04T18:54:12.110Z,92.40
2018-08-04T18:56:40.601Z,93.10
2018-08-04T18:59:09.958Z,93.00
2018-08-04T19:01:38.442Z,93.40
2018-08-04T19:04:06.894Z,94.30
2018-08-04T19:06:35.813Z,94.70
2018-08-04T19:09:06.829Z,96.00
2018-08-04T19:11:35.490Z,96.80
2018-08-04T19:14:03.909Z,97.60
2018-08-04T19:16:32.445Z,97.40
2018-08-04T19:19:00.974Z,97.90
2018-08-04T19:21:29.798Z,98.60
2018-08-04T19:23:58.276Z,99.70
2018-08-04T19:26:26.755Z,99.90
2018-08-04T19:28:55.234Z,99.90
2018-08-04T19:31:24.295Z,99.90
2018-08-04T19:33:53.136Z,99.90
2018-08-04T19:36:21.826Z,99.90
2018-08-04T19:38:50.660Z,99.90
2018-08-04T19:41:19.178Z,99.90
2018-08-04T19:43:47.681Z,99.90
2018-08-04T19:46:16.701Z,99.90
2018-08-04T19:48:45.213Z,99.90
2018-08-04T19:51:13.797Z,99.90
2018-08-04T19:53:42.329Z,99.90
2018-08-04T19:56:10.793Z,99.90
2018-08-04T19:58:39.328Z,99.90
2018-08-04T20:01:07.824Z,99.90
2018-08-04T20:03:36.326Z,99.90
2018-08-04T20:06:05.695Z,99.90
2018-08-04T20:08:34.100Z,99.90
2018-08-04T20:11:03.190Z,99.90
2018-08-04T20:13:31.730Z,99.90
2018-08-04T20:16:00.176Z,99.90
2018-08-04T20:18:28.709Z,99.90
2018-08-04T20:20:57.958Z,99.90
2018-08-04T20:23:26.402Z,99.90
2018-08-04T20:25:55.507Z,99.90
2018-08-04T20:28:24.116Z,99.90
2018-08-04T20:30:52.608Z,99.90
2018-08-04T20:33:21.240Z,99.90
2018-08-04T20:35:49.701Z,99.90
2018-08-04T20:38:18.636Z,99.90
2018-08-04T20:40:47.640Z,99.90
2018-08-04T20:43:16.194Z,99.90
2018-08-04T20:46:01.506Z,99.90
2018-08-04T20:48:30.098Z,99.90
2018-08-04T20:51:09.904Z,99.90
2018-08-04T20:53:50.854Z,99.90
2018-08-04T20:56:20.115Z,99.90
2018-08-04T20:58:55.434Z,99.90
2018-08-04T21:01:46.665Z,99.90
2018-08-04T21:06:43.448Z,99.90
2018-08-04T21:09:12.182Z,99.90
2018-08-04T21:11:50.870Z,99.90
2018-08-04T21:14:20.821Z,99.90
2018-08-04T21:16:50.413Z,99.90
2018-08-04T21:19:20.461Z,99.90
2018-08-04T21:21:49.146Z,99.90
2018-08-04T21:24:19.163Z,99.90
2018-08-04T21:26:48.558Z,99.90
2018-08-04T21:29:17.256Z,99.90
2018-08-04T21:39:13.706Z,99.90
2018-08-04T21:41:43.729Z,99.90
2018-08-04T21:44:12.600Z,99.90
2018-08-04T21:46:44.325Z,99.90
2018-08-04T21:49:13.301Z,99.90
2018-08-04T21:51:44.165Z,99.90
2018-08-04T21:54:13.705Z,99.90
2018-08-04T21:56:42.932Z,99.90
2018-08-04T21:59:11.736Z,99.90
2018-08-04T22:01:44.601Z,99.90
2018-08-04T22:04:13.252Z,99.90
2018-08-04T22:06:54.095Z,99.90
2018-08-04T22:09:24.583Z,99.90
2018-08-04T22:11:53.280Z,99.90
2018-08-04T22:14:21.780Z,99.90
2018-08-04T22:16:50.442Z,99.90
2018-08-04T22:19:19.171Z,99.90
2018-08-04T22:21:47.766Z,99.90
2018-08-04T22:24:16.692Z,99.90
2018-08-04T22:26:45.202Z,99.90
2018-08-04T22:29:13.832Z,99.90
2018-08-04T22:31:42.638Z,99.90
2018-08-04T22:34:11.273Z,99.90
2018-08-04T22:36:39.852Z,99.90
2018-08-04T22:39:08.721Z,99.90
2018-08-04T22:41:37.168Z,99.90
2018-08-04T22:44:05.873Z,99.90
2018-08-04T22:46:34.296Z,99.90
2018-08-04T22:49:02.940Z,99.90
2018-08-04T22:51:31.956Z,99.90
2018-08-04T22:54:00.452Z,99.90
2018-08-04T22:56:28.905Z,99.90
2018-08-04T22:58:57.614Z,99.90
2018-08-04T23:03:54.275Z,99.90
2018-08-04T23:08:50.942Z,99.90
2018-08-04T23:11:19.402Z,99.90
2018-08-04T23:13:47.997Z,99.90
2018-08-04T23:16:16.518Z,99.90
2018-08-04T23:18:45.132Z,99.90
2018-08-04T23:21:13.747Z,99.90
2018-08-04T23:23:42.843Z,99.90
2018-08-04T23:28:39.504Z,99.90
2018-08-04T23:31:08.056Z,99.90
2018-08-04T23:33:37.390Z,99.90
2018-08-04T23:36:06.013Z,99.90
2018-08-04T23:38:34.442Z,99.90
2018-08-04T23:41:02.985Z,99.90
2018-08-04T23:43:32.203Z,99.90
2018-08-04T23:46:00.734Z,99.90
2018-08-04T23:48:29.411Z,99.90
2018-08-04T23:50:58.136Z,99.90
2018-08-04T23:53:26.573Z,99.90
2018-08-04T23:55:55.261Z,99.90
2018-08-04T23:58:23.738Z,99.90
